Chicago, Illinois
Traffic Map
Current Weather Conditions
Chicago, Illinois
Clear
Clear
43°
Feels Like: 39°
Wind Chill: 39° Ceiling: Unl
Heat Index: 43° Visibility: 10mi
Dew Point: 24° Wind: 7mph
Humidity: 47% Direction: 260° (W)
Pressure: 29.7in Gusts: 0mph
Raw Report DataKMDW 220353Z 26006KT 10SM CLR 06/M04 A2970 RMK AO2 SLP061 T00611044
Traffic Incident Summary
Active as of:
Severity:
Category:
InformationThere was an issue retrieving the traffic information for this location. Please try a different location or try again shortly.
Advertisements
Track Severe Weather on mobile